Delray Beach, FL

12:21 PM EDT on August 01, 2015 (GMT -0400)
Delray Beach | | Change Station
CLOSE
Current Station
Personal Weather Station
Location: Delray Beach, FL
Elevation: 30 ft
Nearby Weather Stations

Elev 30 ft 26.47 °N, 80.09 °W | Updated 51 seconds ago

Mostly Cloudy
Mostly Cloudy
82.0 °F
Feels Like 89 °F
N
4.2
Wind Variable Wind from South
Gusts 6.3 mph

Today
High -- | Low -- °F
--% Chance of Precip.
Yesterday
High -- | Low -- °F
Precip. -- in
6:45 AM 8:07 PM
Full, 98% visible
Pressure 30.02 in
Visibility 10.0 miles
Clouds Few 2700 ft
Scattered Clouds 17000 ft
Mostly Cloudy 25000 ft
Heat Index 89 °F
Dew Point 76 °F
Humidity 81%
Rainfall 0.00 in
Snow Depth Not available.
UV 7 out of 12
Pollen 2.70 out of 12
Air Quality Not available.
Flu Activity Not available.
METAR KPMP 011553Z 15011KT 10SM FEW027 SCT170 BKN250 32/22 A3001 RMK AO2 SLP164 T03170222

More Conditions Fewer Conditions

Pressure 30.02 in
Visibility 10.0 miles
Clouds Few 2700 ft
Scattered Clouds 17000 ft
Mostly Cloudy 25000 ft
Heat Index 89 °F
Dew Point 76 °F
Humidity 81%
Rainfall 0.00 in
Snow Depth Not available.
UV 7 out of 12
Pollen 2.70 out of 12
Air Quality Not available.
Flu Activity Not available.
METAR KPMP 011553Z 15011KT 10SM FEW027 SCT170 BKN250 32/22 A3001 RMK AO2 SLP164 T03170222

More Conditions Fewer Conditions

10-Day Weather Forecast

×

Almanac

Astronomy

Aug. 01, 2015 Rise Set
Actual Time
Civil Twilight
Nautical Twilight
Astronomical Twilight
Moon
Length of Visible Light
Length of Day
Tomorrow will be .
, % of the Moon is Illuminated

Today's Extremes

State Highs State Lows

Community

WunderPhotos

Upload Photos

1,842,983 photos uploaded!

WunderBlogs® & News

Nearby

Air Quality

  Air Quality AQ Index Pollutant
Not available.

Snow Depth

Station Depth Elevation

Earthquake Activity

City Distance Mag. Time & Date
Minimum magnitude displayed is 2.5.

Coastal Water Temperatures

Place Temperature

Stations

Nearby Weather Stations

Station Location Temp. Windchill Dew Point Humidity Wind Precip. Elev Updated Type